Terminal Aerodrome Forecast
Issued by NWS

Current Version | Previous Version | Text Only | Print | Product List | Glossary On
Versions: 1 2 3 4 5 6 7 8 9 10 11 12 13
000
FTUS44 KBMX 282300
TAFTCL
TAF
KTCL 282333Z 2900/2924 34006KT P6SM FEW050
     FM290200 34005KT P6SM SKC
     FM291500 34010KT P6SM SKC=

USA.gov is the U.S. government's official web portal to all federal, state and local government web resources and services.